createdAt,value
2022-08-26T00:00:09.703Z,25.51
2022-08-26T00:00:41.410Z,25.50
2022-08-26T00:01:12.842Z,25.51
2022-08-26T00:01:44.859Z,25.51
2022-08-26T00:02:16.597Z,25.50
2022-08-26T00:02:51.941Z,25.49
2022-08-26T00:03:23.368Z,25.50
2022-08-26T00:03:54.864Z,25.50
2022-08-26T00:04:26.413Z,25.49
2022-08-26T00:04:57.872Z,25.49
2022-08-26T00:05:29.301Z,25.49
2022-08-26T00:06:00.740Z,25.49
2022-08-26T00:06:32.178Z,25.49
2022-08-26T00:07:03.656Z,25.49
2022-08-26T00:07:36.733Z,25.48
2022-08-26T00:08:08.753Z,25.48
2022-08-26T00:08:44.499Z,25.47
2022-08-26T00:09:18.213Z,25.49
2022-08-26T00:09:50.181Z,25.49
2022-08-26T00:10:25.966Z,25.47
2022-08-26T00:10:59.962Z,25.47
2022-08-26T00:11:31.458Z,25.48
2022-08-26T00:12:03.058Z,25.48
2022-08-26T00:12:37.466Z,25.47
2022-08-26T00:13:09.296Z,25.46
2022-08-26T00:13:40.737Z,25.47
2022-08-26T00:14:19.391Z,25.46
2022-08-26T00:14:50.833Z,25.46
2022-08-26T00:15:22.260Z,25.46
2022-08-26T00:15:53.684Z,25.46
2022-08-26T00:16:25.180Z,25.46
2022-08-26T00:16:56.760Z,25.45
2022-08-26T00:17:28.240Z,25.45
2022-08-26T00:17:59.676Z,25.46
2022-08-26T00:18:31.100Z,25.46
2022-08-26T00:19:10.049Z,25.45
2022-08-26T00:19:42.638Z,25.44
2022-08-26T00:20:14.194Z,25.44
2022-08-26T00:20:45.629Z,25.45
2022-08-26T00:21:17.063Z,25.45
2022-08-26T00:21:49.717Z,25.45
2022-08-26T00:22:21.680Z,25.45
2022-08-26T00:22:53.184Z,25.45
2022-08-26T00:23:24.627Z,25.44
2022-08-26T00:24:00.248Z,25.44
2022-08-26T00:24:31.672Z,25.44
2022-08-26T00:25:03.108Z,25.43
2022-08-26T00:25:34.548Z,25.43
2022-08-26T00:26:05.981Z,25.44
2022-08-26T00:26:39.815Z,25.44
2022-08-26T00:27:12.876Z,25.43
2022-08-26T00:27:44.424Z,25.43
2022-08-26T00:28:16.163Z,25.42
2022-08-26T00:28:50.489Z,25.43
2022-08-26T00:29:22.448Z,25.42
2022-08-26T00:29:53.891Z,25.42
2022-08-26T00:30:28.201Z,25.41
2022-08-26T00:30:59.634Z,25.41
2022-08-26T00:31:31.365Z,25.41
2022-08-26T00:32:02.915Z,25.41
2022-08-26T00:32:35.551Z,25.41
2022-08-26T00:33:09.089Z,25.41
2022-08-26T00:33:41.021Z,25.40
2022-08-26T00:34:12.550Z,25.41
2022-08-26T00:34:45.299Z,25.40
2022-08-26T00:35:16.742Z,25.40
2022-08-26T00:35:48.189Z,25.40
2022-08-26T00:36:19.942Z,25.39
2022-08-26T00:36:52.187Z,25.39
2022-08-26T00:37:23.653Z,25.39
2022-08-26T00:37:56.474Z,25.38
2022-08-26T00:38:29.032Z,25.39
2022-08-26T00:39:01.114Z,25.38
2022-08-26T00:39:33.918Z,25.38
2022-08-26T00:40:05.484Z,25.37
2022-08-26T00:40:36.993Z,25.38
2022-08-26T00:41:08.427Z,25.37
2022-08-26T00:41:39.884Z,25.38
2022-08-26T00:42:11.340Z,25.39
2022-08-26T00:42:45.885Z,25.37
2022-08-26T00:43:17.667Z,25.37
2022-08-26T00:43:51.490Z,25.37
2022-08-26T00:44:22.916Z,25.36
2022-08-26T00:44:54.356Z,25.37
2022-08-26T00:45:25.808Z,25.37
2022-08-26T00:45:57.300Z,25.37
2022-08-26T00:46:30.156Z,25.37
2022-08-26T00:47:02.981Z,25.37
2022-08-26T00:47:34.420Z,25.36
2022-08-26T00:48:06.014Z,25.36
2022-08-26T00:48:37.445Z,25.36
2022-08-26T00:49:12.044Z,25.36
2022-08-26T00:49:43.902Z,25.35
2022-08-26T00:50:15.333Z,25.37
2022-08-26T00:50:46.893Z,25.36
2022-08-26T00:51:18.320Z,25.35
2022-08-26T00:51:49.753Z,25.36
2022-08-26T00:52:21.356Z,25.35
2022-08-26T00:52:54.317Z,25.34
2022-08-26T00:53:25.999Z,25.34
2022-08-26T00:53:59.431Z,25.35
2022-08-26T00:54:31.300Z,25.34
2022-08-26T00:55:02.811Z,25.34
2022-08-26T00:55:37.808Z,25.34
2022-08-26T00:56:09.512Z,25.34
2022-08-26T00:56:44.804Z,25.33
2022-08-26T00:57:18.530Z,25.33
2022-08-26T00:57:50.824Z,25.33
2022-08-26T00:58:22.269Z,25.33
2022-08-26T00:58:53.709Z,25.34
2022-08-26T00:59:25.165Z,25.32
2022-08-26T00:59:57.438Z,25.32
2022-08-26T01:00:28.863Z,25.33
2022-08-26T01:01:00.401Z,25.32
2022-08-26T01:01:31.977Z,25.33
2022-08-26T01:02:04.636Z,25.32
2022-08-26T01:02:36.785Z,25.32
2022-08-26T01:03:11.560Z,25.32
2022-08-26T01:03:44.242Z,25.31
2022-08-26T01:04:17.015Z,25.32
2022-08-26T01:04:48.549Z,25.32
2022-08-26T01:05:25.775Z,25.32
2022-08-26T01:05:57.218Z,25.31
2022-08-26T01:06:28.781Z,25.31
2022-08-26T01:07:00.209Z,25.31
2022-08-26T01:07:32.418Z,25.32
2022-08-26T01:08:06.135Z,25.30
2022-08-26T01:08:37.560Z,25.30
2022-08-26T01:09:08.989Z,25.31
2022-08-26T01:09:40.488Z,25.31
2022-08-26T01:10:12.224Z,25.30
2022-08-26T01:10:43.654Z,25.31
2022-08-26T01:11:15.381Z,25.31
2022-08-26T01:11:47.877Z,25.31
2022-08-26T01:12:22.010Z,25.30
2022-08-26T01:12:53.738Z,25.30
2022-08-26T01:13:25.180Z,25.29
2022-08-26T01:13:56.611Z,25.29
2022-08-26T01:14:28.061Z,25.29
2022-08-26T01:14:59.573Z,25.30
2022-08-26T01:15:32.762Z,25.30
2022-08-26T01:16:04.457Z,25.29
2022-08-26T01:16:36.022Z,25.28
2022-08-26T01:17:07.503Z,25.27
2022-08-26T01:17:40.795Z,25.28
2022-08-26T01:18:12.245Z,25.28
2022-08-26T01:18:43.685Z,25.26
2022-08-26T01:19:15.104Z,25.27
2022-08-26T01:19:46.533Z,25.27
2022-08-26T01:20:18.555Z,25.28
2022-08-26T01:20:50.169Z,25.27
2022-08-26T01:21:21.612Z,25.27
2022-08-26T01:21:54.017Z,25.26
2022-08-26T01:22:28.139Z,25.26
2022-08-26T01:23:01.647Z,25.26
2022-08-26T01:23:34.718Z,25.26
2022-08-26T01:24:06.155Z,25.26
2022-08-26T01:24:37.861Z,25.25
2022-08-26T01:25:10.073Z,25.25
2022-08-26T01:25:43.137Z,25.25
2022-08-26T01:26:19.460Z,25.25
2022-08-26T01:26:51.500Z,25.25
2022-08-26T01:27:22.927Z,25.25
2022-08-26T01:27:54.791Z,25.24
2022-08-26T01:28:28.972Z,25.23
2022-08-26T01:29:01.290Z,25.24
2022-08-26T01:29:32.714Z,25.24
2022-08-26T01:30:04.157Z,25.24
2022-08-26T01:30:35.652Z,25.23
2022-08-26T01:31:07.093Z,25.23
2022-08-26T01:31:39.084Z,25.23
2022-08-26T01:32:10.605Z,25.22
2022-08-26T01:32:42.028Z,25.23
2022-08-26T01:33:13.452Z,25.22
2022-08-26T01:33:44.887Z,25.23
2022-08-26T01:34:16.322Z,25.23
2022-08-26T01:34:47.761Z,25.23
2022-08-26T01:35:19.262Z,25.23
2022-08-26T01:35:50.970Z,25.22
2022-08-26T01:36:23.002Z,25.22
2022-08-26T01:36:55.051Z,25.21
2022-08-26T01:37:26.472Z,25.21
2022-08-26T01:37:58.071Z,25.21
2022-08-26T01:38:31.615Z,25.20
2022-08-26T01:39:05.929Z,25.22
2022-08-26T01:39:38.712Z,25.20
2022-08-26T01:40:11.785Z,25.21
2022-08-26T01:40:43.308Z,25.21
2022-08-26T01:41:16.181Z,25.21
2022-08-26T01:41:53.684Z,25.20
2022-08-26T01:42:25.290Z,25.20
2022-08-26T01:42:56.720Z,25.20
2022-08-26T01:43:28.152Z,25.20
2022-08-26T01:43:59.872Z,25.20
2022-08-26T01:44:31.304Z,25.19
2022-08-26T01:45:02.734Z,25.20
2022-08-26T01:45:35.745Z,25.20
2022-08-26T01:46:07.797Z,25.20
2022-08-26T01:46:41.641Z,25.20
2022-08-26T01:47:13.071Z,25.18
2022-08-26T01:47:44.495Z,25.19
2022-08-26T01:48:16.334Z,25.18
2022-08-26T01:48:47.761Z,25.18
2022-08-26T01:49:23.852Z,25.19
2022-08-26T01:49:57.528Z,25.18
2022-08-26T01:50:30.361Z,25.18
2022-08-26T01:51:01.956Z,25.18
2022-08-26T01:51:33.475Z,25.18
2022-08-26T01:52:04.903Z,25.18
2022-08-26T01:52:37.641Z,25.18
2022-08-26T01:53:09.526Z,25.18
2022-08-26T01:53:42.189Z,25.18
2022-08-26T01:54:17.562Z,25.18
2022-08-26T01:54:52.030Z,25.16
2022-08-26T01:55:33.039Z,25.18
2022-08-26T01:56:04.709Z,25.17
2022-08-26T01:56:37.084Z,25.17
2022-08-26T01:57:08.516Z,25.18
2022-08-26T01:57:39.948Z,25.17
2022-08-26T01:58:14.194Z,25.17
2022-08-26T01:58:45.624Z,25.17
2022-08-26T01:59:17.061Z,25.16
2022-08-26T01:59:48.792Z,25.17
2022-08-26T02:00:20.219Z,25.16
2022-08-26T02:00:51.714Z,25.17
2022-08-26T02:01:23.321Z,25.16
2022-08-26T02:02:00.572Z,25.16
2022-08-26T02:02:32.001Z,25.15
2022-08-26T02:03:03.508Z,25.16
2022-08-26T02:03:36.387Z,25.15
2022-08-26T02:04:10.292Z,25.16
2022-08-26T02:04:41.815Z,25.16
2022-08-26T02:05:13.901Z,25.16
2022-08-26T02:05:45.332Z,25.16
2022-08-26T02:06:20.287Z,25.16
2022-08-26T02:06:51.734Z,25.15
2022-08-26T02:07:23.439Z,25.14
2022-08-26T02:07:58.170Z,25.14
2022-08-26T02:08:29.749Z,25.15
2022-08-26T02:09:01.939Z,25.12
2022-08-26T02:09:33.360Z,25.14
2022-08-26T02:10:12.614Z,25.13
2022-08-26T02:10:45.127Z,25.13
2022-08-26T02:11:18.319Z,25.13
2022-08-26T02:11:51.169Z,25.12
2022-08-26T02:12:22.679Z,25.12
2022-08-26T02:12:54.208Z,25.12
2022-08-26T02:13:25.639Z,25.11
2022-08-26T02:13:57.082Z,25.12
2022-08-26T02:14:29.529Z,25.12
2022-08-26T02:15:00.956Z,25.12
2022-08-26T02:15:32.385Z,25.11
2022-08-26T02:16:03.893Z,25.12
2022-08-26T02:16:36.051Z,25.11
2022-08-26T02:17:07.705Z,25.11
2022-08-26T02:17:39.141Z,25.11
2022-08-26T02:18:14.024Z,25.11
2022-08-26T02:18:46.882Z,25.11
2022-08-26T02:19:18.485Z,25.11
2022-08-26T02:19:49.903Z,25.11
2022-08-26T02:20:21.776Z,25.11
2022-08-26T02:20:53.204Z,25.11
2022-08-26T02:21:25.026Z,25.11
2022-08-26T02:21:56.607Z,25.10
2022-08-26T02:22:28.042Z,25.10
2022-08-26T02:22:59.581Z,25.09
2022-08-26T02:23:31.049Z,25.10
2022-08-26T02:24:02.477Z,25.10
2022-08-26T02:24:33.904Z,25.09
2022-08-26T02:25:05.337Z,25.10
2022-08-26T02:25:37.516Z,25.09
2022-08-26T02:26:09.217Z,25.10
2022-08-26T02:26:40.646Z,25.10
2022-08-26T02:27:12.163Z,25.10
2022-08-26T02:27:43.597Z,25.08
2022-08-26T02:28:15.033Z,25.09
2022-08-26T02:28:46.495Z,25.09
2022-08-26T02:29:18.034Z,25.08
2022-08-26T02:29:52.709Z,25.08
2022-08-26T02:30:24.135Z,25.07
2022-08-26T02:30:57.488Z,25.06
2022-08-26T02:31:30.614Z,25.08
2022-08-26T02:32:02.095Z,25.06
2022-08-26T02:32:33.527Z,25.08
2022-08-26T02:33:06.462Z,25.07
2022-08-26T02:33:43.056Z,25.06
2022-08-26T02:34:15.175Z,25.07
2022-08-26T02:34:46.664Z,25.08
2022-08-26T02:35:20.186Z,25.08
2022-08-26T02:35:51.857Z,25.06
2022-08-26T02:36:23.288Z,25.05
2022-08-26T02:36:54.734Z,25.06
2022-08-26T02:37:26.184Z,25.06
2022-08-26T02:37:57.614Z,25.06
2022-08-26T02:38:29.356Z,25.06
2022-08-26T02:39:01.063Z,25.05
2022-08-26T02:39:32.568Z,25.06
2022-08-26T02:40:04.067Z,25.05
2022-08-26T02:40:35.795Z,25.06
2022-08-26T02:41:07.940Z,25.04
2022-08-26T02:41:44.942Z,25.06
2022-08-26T02:42:16.782Z,25.05
2022-08-26T02:42:48.218Z,25.04
2022-08-26T02:43:19.659Z,25.04
2022-08-26T02:44:03.017Z,25.04
2022-08-26T02:44:34.497Z,25.04
2022-08-26T02:45:05.927Z,25.05
2022-08-26T02:45:38.613Z,25.05
2022-08-26T02:46:10.089Z,25.04
2022-08-26T02:46:42.886Z,25.04
2022-08-26T02:47:18.715Z,25.04
2022-08-26T02:47:50.153Z,25.04
2022-08-26T02:48:21.811Z,25.04
2022-08-26T02:48:53.332Z,25.03
2022-08-26T02:49:24.956Z,25.04
2022-08-26T02:49:56.580Z,25.03
2022-08-26T02:50:28.017Z,25.02
2022-08-26T02:50:59.461Z,25.02
2022-08-26T02:51:30.906Z,25.02
2022-08-26T02:52:04.770Z,25.01
2022-08-26T02:52:36.289Z,25.01
2022-08-26T02:53:09.137Z,25.01
2022-08-26T02:53:41.151Z,25.02
2022-08-26T02:54:14.071Z,25.02
2022-08-26T02:54:45.538Z,25.02
2022-08-26T02:55:17.088Z,25.01
2022-08-26T02:55:48.913Z,25.01
2022-08-26T02:56:21.459Z,25.02
2022-08-26T02:56:53.052Z,25.00
2022-08-26T02:57:24.486Z,25.00
2022-08-26T02:57:55.917Z,25.00
2022-08-26T02:58:27.354Z,25.00
2022-08-26T02:58:58.802Z,25.00
2022-08-26T02:59:30.238Z,24.98
2022-08-26T03:00:01.669Z,24.99
2022-08-26T03:00:33.190Z,25.00
2022-08-26T03:01:04.923Z,24.99
2022-08-26T03:01:36.838Z,24.99
2022-08-26T03:02:08.351Z,24.99
2022-08-26T03:02:39.825Z,24.98
2022-08-26T03:03:11.255Z,24.99
2022-08-26T03:03:42.685Z,24.99
2022-08-26T03:04:14.133Z,24.98
2022-08-26T03:04:58.033Z,24.98
2022-08-26T03:05:33.630Z,24.97
2022-08-26T03:06:05.572Z,24.97
2022-08-26T03:06:36.999Z,24.97
2022-08-26T03:07:09.248Z,24.97
2022-08-26T03:07:40.677Z,24.97
2022-08-26T03:08:12.099Z,24.98
2022-08-26T03:08:43.729Z,24.97
2022-08-26T03:09:18.615Z,24.96
2022-08-26T03:09:50.416Z,24.97
2022-08-26T03:10:23.093Z,24.96
2022-08-26T03:10:57.524Z,24.96
2022-08-26T03:11:33.021Z,24.96
2022-08-26T03:12:04.781Z,24.95
2022-08-26T03:12:36.394Z,24.95
2022-08-26T03:13:07.973Z,24.94
2022-08-26T03:13:39.568Z,24.95
2022-08-26T03:14:11.004Z,24.96
2022-08-26T03:14:44.230Z,24.95
2022-08-26T03:15:17.414Z,24.95
2022-08-26T03:15:49.490Z,24.95
2022-08-26T03:16:21.178Z,24.95
2022-08-26T03:16:52.650Z,24.95
2022-08-26T03:17:24.076Z,24.95
2022-08-26T03:17:58.396Z,24.94
2022-08-26T03:18:30.833Z,24.95
2022-08-26T03:19:02.261Z,24.95
2022-08-26T03:19:34.530Z,24.93
2022-08-26T03:20:06.424Z,24.95
2022-08-26T03:20:37.853Z,24.93
2022-08-26T03:21:09.289Z,24.94
2022-08-26T03:21:40.802Z,24.94
2022-08-26T03:22:12.557Z,24.94
2022-08-26T03:22:46.081Z,24.93
2022-08-26T03:23:18.507Z,24.93
2022-08-26T03:23:50.090Z,24.93
2022-08-26T03:24:21.512Z,24.93
2022-08-26T03:24:52.944Z,24.93
2022-08-26T03:25:24.369Z,24.93
2022-08-26T03:25:55.799Z,24.92
2022-08-26T03:26:27.508Z,24.93
2022-08-26T03:26:59.005Z,24.92
2022-08-26T03:27:30.484Z,24.92
2022-08-26T03:28:04.257Z,24.92
2022-08-26T03:28:35.696Z,24.93
2022-08-26T03:29:07.132Z,24.92
2022-08-26T03:29:38.561Z,24.91
2022-08-26T03:30:11.738Z,24.92
2022-08-26T03:30:44.905Z,24.92
2022-08-26T03:31:16.638Z,24.91
2022-08-26T03:31:48.199Z,24.92
2022-08-26T03:32:20.730Z,24.92
2022-08-26T03:32:52.162Z,24.91
2022-08-26T03:33:23.589Z,24.91
2022-08-26T03:33:59.131Z,24.91
2022-08-26T03:34:31.263Z,24.91
2022-08-26T03:35:02.705Z,24.91
2022-08-26T03:35:34.145Z,24.90
2022-08-26T03:36:05.581Z,24.90
2022-08-26T03:36:37.017Z,24.91
2022-08-26T03:37:08.486Z,24.90
2022-08-26T03:37:39.917Z,24.91
2022-08-26T03:38:11.353Z,24.90
2022-08-26T03:38:43.244Z,24.90
2022-08-26T03:39:14.706Z,24.89
2022-08-26T03:39:46.141Z,24.90
2022-08-26T03:40:20.373Z,24.89
2022-08-26T03:40:52.001Z,24.89
2022-08-26T03:41:24.004Z,24.90
2022-08-26T03:41:55.428Z,24.89
2022-08-26T03:42:27.014Z,24.89
2022-08-26T03:42:58.440Z,24.89
2022-08-26T03:43:31.197Z,24.88
2022-08-26T03:44:02.703Z,24.89
2022-08-26T03:44:34.858Z,24.88
2022-08-26T03:45:06.381Z,24.88
2022-08-26T03:45:37.842Z,24.88
2022-08-26T03:46:09.308Z,24.88
2022-08-26T03:46:40.826Z,24.89
2022-08-26T03:47:12.284Z,24.88
2022-08-26T03:47:43.833Z,24.88
2022-08-26T03:48:15.273Z,24.87
2022-08-26T03:48:46.714Z,24.88
2022-08-26T03:49:18.149Z,24.87
2022-08-26T03:49:49.933Z,24.87
2022-08-26T03:50:24.371Z,24.86
2022-08-26T03:50:55.884Z,24.87
2022-08-26T03:51:28.985Z,24.86
2022-08-26T03:52:00.410Z,24.86
2022-08-26T03:52:31.837Z,24.87
2022-08-26T03:53:03.305Z,24.87
2022-08-26T03:53:35.360Z,24.86
2022-08-26T03:54:08.315Z,24.87
2022-08-26T03:54:39.892Z,24.86
2022-08-26T03:55:11.322Z,24.86
2022-08-26T03:55:43.297Z,24.86
2022-08-26T03:56:14.818Z,24.86
2022-08-26T03:56:46.520Z,24.86
2022-08-26T03:57:18.145Z,24.83
2022-08-26T03:57:50.785Z,24.85
2022-08-26T03:58:22.305Z,24.85
2022-08-26T03:58:53.746Z,24.83
2022-08-26T03:59:25.177Z,24.85
2022-08-26T03:59:56.708Z,24.83
2022-08-26T04:00:28.135Z,24.85
2022-08-26T04:01:00.002Z,24.85
2022-08-26T04:01:31.518Z,24.85
2022-08-26T04:02:03.855Z,24.84
2022-08-26T04:02:42.908Z,24.84
2022-08-26T04:03:18.535Z,24.83
2022-08-26T04:03:50.289Z,24.83
2022-08-26T04:04:22.891Z,24.84
2022-08-26T04:04:56.021Z,24.83
2022-08-26T04:05:27.467Z,24.82
2022-08-26T04:05:59.768Z,24.83
2022-08-26T04:06:31.242Z,24.83
2022-08-26T04:07:02.673Z,24.82
2022-08-26T04:07:34.096Z,24.83
2022-08-26T04:08:05.532Z,24.81
2022-08-26T04:08:37.102Z,24.81
2022-08-26T04:09:09.947Z,24.81
2022-08-26T04:09:41.380Z,24.82
2022-08-26T04:10:12.826Z,24.81
2022-08-26T04:10:44.432Z,24.81
2022-08-26T04:11:15.939Z,24.81
2022-08-26T04:11:47.548Z,24.81
2022-08-26T04:12:22.220Z,24.80
2022-08-26T04:12:53.654Z,24.81
2022-08-26T04:13:25.162Z,24.80
2022-08-26T04:13:56.646Z,24.81
2022-08-26T04:14:28.138Z,24.79
2022-08-26T04:14:59.579Z,24.79
2022-08-26T04:15:31.059Z,24.80
2022-08-26T04:16:02.534Z,24.81
2022-08-26T04:16:34.084Z,24.80
2022-08-26T04:17:06.537Z,24.79
2022-08-26T04:17:39.012Z,24.79
2022-08-26T04:18:10.594Z,24.79
2022-08-26T04:18:46.895Z,24.79
2022-08-26T04:19:18.626Z,24.79
2022-08-26T04:19:51.070Z,24.80
2022-08-26T04:20:22.512Z,24.79
2022-08-26T04:20:53.953Z,24.79
2022-08-26T04:21:25.382Z,24.78
2022-08-26T04:21:58.219Z,24.78
2022-08-26T04:22:29.668Z,24.78
2022-08-26T04:23:01.115Z,24.79
2022-08-26T04:23:32.544Z,24.78
2022-08-26T04:24:18.876Z,24.77
2022-08-26T04:24:50.313Z,24.78
2022-08-26T04:25:21.924Z,24.78
2022-08-26T04:25:53.357Z,24.78
2022-08-26T04:26:24.785Z,24.77
2022-08-26T04:26:56.215Z,24.78
2022-08-26T04:27:27.656Z,24.77
2022-08-26T04:27:59.186Z,24.78
2022-08-26T04:28:30.618Z,24.78
2022-08-26T04:29:02.109Z,24.77
2022-08-26T04:29:33.597Z,24.78
2022-08-26T04:30:06.144Z,24.76
2022-08-26T04:30:40.303Z,24.76
2022-08-26T04:31:13.978Z,24.76
2022-08-26T04:31:45.506Z,24.76
2022-08-26T04:32:16.998Z,24.76
2022-08-26T04:32:48.428Z,24.76
2022-08-26T04:33:19.855Z,24.77
2022-08-26T04:34:03.803Z,24.75
2022-08-26T04:34:35.318Z,24.76
2022-08-26T04:35:06.761Z,24.75
2022-08-26T04:35:38.233Z,24.75
2022-08-26T04:36:14.570Z,24.75
2022-08-26T04:36:46.007Z,24.76
2022-08-26T04:37:17.767Z,24.75
2022-08-26T04:37:49.197Z,24.75
2022-08-26T04:38:20.624Z,24.75
2022-08-26T04:38:53.178Z,24.75
2022-08-26T04:39:25.407Z,24.75
2022-08-26T04:39:59.370Z,24.75
2022-08-26T04:40:30.904Z,24.75
2022-08-26T04:41:02.386Z,24.75
2022-08-26T04:41:36.904Z,24.75
2022-08-26T04:42:08.336Z,24.74
2022-08-26T04:42:40.313Z,24.75
2022-08-26T04:43:11.758Z,24.74
2022-08-26T04:43:43.192Z,24.75
2022-08-26T04:44:14.621Z,24.74
2022-08-26T04:44:46.047Z,24.75
2022-08-26T04:45:17.578Z,24.75
2022-08-26T04:45:49.018Z,24.75
2022-08-26T04:46:20.529Z,24.75
2022-08-26T04:46:52.045Z,24.75
2022-08-26T04:47:23.497Z,24.75
2022-08-26T04:47:54.928Z,24.74
2022-08-26T04:48:26.366Z,24.75
2022-08-26T04:48:57.811Z,24.74
2022-08-26T04:49:29.306Z,24.75
2022-08-26T04:50:07.487Z,24.74
2022-08-26T04:50:39.048Z,24.75
2022-08-26T04:51:14.417Z,24.75
2022-08-26T04:51:45.848Z,24.75
2022-08-26T04:52:17.292Z,24.75
2022-08-26T04:52:48.724Z,24.75
2022-08-26T04:53:20.160Z,24.75
2022-08-26T04:53:52.141Z,24.75
2022-08-26T04:54:23.572Z,24.74
2022-08-26T04:54:56.655Z,24.75
2022-08-26T04:55:38.209Z,24.73
2022-08-26T04:56:11.104Z,24.75
2022-08-26T04:56:42.541Z,24.75
2022-08-26T04:57:14.559Z,24.74
2022-08-26T04:57:47.036Z,24.74
2022-08-26T04:58:18.476Z,24.76
2022-08-26T04:58:49.910Z,24.75
2022-08-26T04:59:21.341Z,24.75
2022-08-26T04:59:53.043Z,24.74
2022-08-26T05:00:24.481Z,24.75
2022-08-26T05:00:58.113Z,24.75
2022-08-26T05:01:29.587Z,24.74
2022-08-26T05:02:01.137Z,24.75
2022-08-26T05:02:33.055Z,24.75
2022-08-26T05:03:04.500Z,24.75
2022-08-26T05:03:37.095Z,24.74
2022-08-26T05:04:08.593Z,24.75
2022-08-26T05:04:40.137Z,24.75
2022-08-26T05:05:12.018Z,24.75
2022-08-26T05:05:43.453Z,24.74
2022-08-26T05:06:14.941Z,24.74
2022-08-26T05:06:50.466Z,24.75
2022-08-26T05:07:23.305Z,24.74
2022-08-26T05:07:54.735Z,24.75
2022-08-26T05:08:26.892Z,24.75
2022-08-26T05:08:58.970Z,24.75
2022-08-26T05:09:30.614Z,24.74
2022-08-26T05:10:02.085Z,24.74
2022-08-26T05:10:34.860Z,24.74
2022-08-26T05:11:06.360Z,24.75
2022-08-26T05:11:40.834Z,24.75
2022-08-26T05:12:12.901Z,24.74
2022-08-26T05:12:44.510Z,24.75
2022-08-26T05:13:15.988Z,24.75
2022-08-26T05:13:47.467Z,24.75
2022-08-26T05:14:18.897Z,24.75
2022-08-26T05:14:50.326Z,24.75
2022-08-26T05:15:23.326Z,24.75
2022-08-26T05:15:55.739Z,24.74
2022-08-26T05:16:32.718Z,24.75
2022-08-26T05:17:04.689Z,24.75
2022-08-26T05:17:36.228Z,24.75
2022-08-26T05:18:07.656Z,24.75
2022-08-26T05:18:39.135Z,24.75
2022-08-26T05:19:10.573Z,24.74
2022-08-26T05:19:42.813Z,24.75
2022-08-26T05:20:14.537Z,24.74
2022-08-26T05:20:46.510Z,24.74
2022-08-26T05:21:18.289Z,24.74
2022-08-26T05:21:49.843Z,24.75
2022-08-26T05:22:21.330Z,24.73
2022-08-26T05:22:52.752Z,24.74
2022-08-26T05:23:24.968Z,24.75
2022-08-26T05:23:56.392Z,24.75
2022-08-26T05:24:27.840Z,24.75
2022-08-26T05:25:00.318Z,24.74
2022-08-26T05:25:31.757Z,24.75
2022-08-26T05:26:05.043Z,24.75
2022-08-26T05:26:36.569Z,24.75
2022-08-26T05:27:11.671Z,24.75
2022-08-26T05:27:43.453Z,24.75
2022-08-26T05:28:15.331Z,24.75
2022-08-26T05:28:47.206Z,24.75
2022-08-26T05:29:19.459Z,24.76
2022-08-26T05:29:54.515Z,24.76
2022-08-26T05:30:26.117Z,24.75
2022-08-26T05:30:57.613Z,24.75
2022-08-26T05:31:29.096Z,24.76
2022-08-26T05:32:00.549Z,24.75
2022-08-26T05:32:32.098Z,24.76
2022-08-26T05:33:03.596Z,24.76
2022-08-26T05:33:35.260Z,24.76
2022-08-26T05:34:06.993Z,24.75
2022-08-26T05:34:39.847Z,24.76
2022-08-26T05:35:14.384Z,24.75
2022-08-26T05:35:47.405Z,24.75
2022-08-26T05:36:18.844Z,24.75
2022-08-26T05:36:50.274Z,24.76
2022-08-26T05:37:21.706Z,24.76
2022-08-26T05:37:53.172Z,24.76
2022-08-26T05:38:25.276Z,24.75
2022-08-26T05:39:01.807Z,24.75
2022-08-26T05:39:33.465Z,24.76
2022-08-26T05:40:05.775Z,24.76
2022-08-26T05:40:37.342Z,24.75
2022-08-26T05:41:08.831Z,24.76
2022-08-26T05:41:40.348Z,24.76
2022-08-26T05:42:11.776Z,24.76
2022-08-26T05:42:44.167Z,24.76
2022-08-26T05:43:15.668Z,24.76
2022-08-26T05:43:47.105Z,24.77
2022-08-26T05:44:18.549Z,24.77
2022-08-26T05:44:54.040Z,24.76
2022-08-26T05:45:27.333Z,24.77
2022-08-26T05:45:59.079Z,24.77
2022-08-26T05:46:30.579Z,24.76
2022-08-26T05:47:02.279Z,24.77
2022-08-26T05:47:35.349Z,24.77
2022-08-26T05:48:06.803Z,24.77
2022-08-26T05:48:38.344Z,24.77
2022-08-26T05:49:12.527Z,24.77
2022-08-26T05:49:51.414Z,24.77
2022-08-26T05:50:23.227Z,24.77
2022-08-26T05:50:55.108Z,24.77
2022-08-26T05:51:26.532Z,24.78
2022-08-26T05:51:58.819Z,24.78
2022-08-26T05:52:30.244Z,24.78
2022-08-26T05:53:01.729Z,24.78
2022-08-26T05:53:33.425Z,24.79
2022-08-26T05:54:05.911Z,24.79
2022-08-26T05:54:37.545Z,24.78
2022-08-26T05:55:09.458Z,24.79
2022-08-26T05:55:40.904Z,24.78
2022-08-26T05:56:12.347Z,24.79
2022-08-26T05:56:43.777Z,24.79
2022-08-26T05:57:18.557Z,24.79
2022-08-26T05:57:50.032Z,24.79
2022-08-26T05:58:21.477Z,24.79
2022-08-26T05:58:52.924Z,24.79
2022-08-26T05:59:24.868Z,24.78
2022-08-26T05:59:56.364Z,24.79
2022-08-26T06:00:27.847Z,24.79
2022-08-26T06:00:59.289Z,24.79
2022-08-26T06:01:31.108Z,24.79
2022-08-26T06:02:07.144Z,24.79
2022-08-26T06:02:39.228Z,24.79
2022-08-26T06:03:10.996Z,24.78
2022-08-26T06:03:42.639Z,24.80
2022-08-26T06:04:14.272Z,24.80
2022-08-26T06:04:45.734Z,24.81
2022-08-26T06:05:17.239Z,24.80
2022-08-26T06:05:48.906Z,24.79
2022-08-26T06:06:20.690Z,24.80
2022-08-26T06:06:58.796Z,24.80
2022-08-26T06:07:30.300Z,24.80
2022-08-26T06:08:01.928Z,24.81
2022-08-26T06:08:34.020Z,24.81
2022-08-26T06:09:06.029Z,24.81
2022-08-26T06:09:41.488Z,24.82
2022-08-26T06:10:31.500Z,24.82
2022-08-26T06:11:04.140Z,24.82
2022-08-26T06:11:36.892Z,24.83
2022-08-26T06:12:08.340Z,24.85
2022-08-26T06:12:39.772Z,24.83
2022-08-26T06:13:12.197Z,24.83
2022-08-26T06:13:44.184Z,24.86
2022-08-26T06:14:15.667Z,24.86
2022-08-26T06:14:49.045Z,24.86
2022-08-26T06:15:20.596Z,24.87
2022-08-26T06:15:54.022Z,24.87
2022-08-26T06:16:27.716Z,24.87
2022-08-26T06:16:59.464Z,24.88
2022-08-26T06:17:30.970Z,24.88
2022-08-26T06:18:02.761Z,24.89
2022-08-26T06:18:34.349Z,24.89
2022-08-26T06:19:10.421Z,24.89
2022-08-26T06:19:43.967Z,24.90
2022-08-26T06:20:15.429Z,24.90
2022-08-26T06:20:56.959Z,24.91
2022-08-26T06:21:28.968Z,24.90
2022-08-26T06:22:00.506Z,24.91
2022-08-26T06:22:32.093Z,24.91
2022-08-26T06:23:03.537Z,24.91
2022-08-26T06:23:36.778Z,24.92
2022-08-26T06:24:08.203Z,24.92
2022-08-26T06:24:40.026Z,24.93
2022-08-26T06:25:11.932Z,24.94
2022-08-26T06:25:43.665Z,24.94
2022-08-26T06:26:15.468Z,24.94
2022-08-26T06:26:50.612Z,24.94
2022-08-26T06:27:22.513Z,24.95
2022-08-26T06:27:55.197Z,24.96
2022-08-26T06:28:26.762Z,24.96
2022-08-26T06:29:00.021Z,24.97
2022-08-26T06:29:33.381Z,24.97
2022-08-26T06:30:05.460Z,24.97
2022-08-26T06:30:37.873Z,24.98
2022-08-26T06:31:09.401Z,24.98
2022-08-26T06:31:40.964Z,24.98
2022-08-26T06:32:12.502Z,24.98
2022-08-26T06:32:43.995Z,24.99
2022-08-26T06:33:15.778Z,24.99
2022-08-26T06:33:47.299Z,24.99
2022-08-26T06:34:19.346Z,25.00
2022-08-26T06:34:50.855Z,25.01
2022-08-26T06:35:22.292Z,25.01
2022-08-26T06:35:53.923Z,25.01
2022-08-26T06:36:25.892Z,25.01
2022-08-26T06:36:57.377Z,25.02
2022-08-26T06:37:28.954Z,25.02
2022-08-26T06:38:00.907Z,25.02
2022-08-26T06:38:32.485Z,25.02
2022-08-26T06:39:04.128Z,25.03
2022-08-26T06:39:35.623Z,25.03
2022-08-26T06:40:12.924Z,25.03
2022-08-26T06:40:44.670Z,25.04
2022-08-26T06:41:16.895Z,25.03
2022-08-26T06:41:49.365Z,25.04
2022-08-26T06:42:21.216Z,25.04
2022-08-26T06:42:52.681Z,25.05
2022-08-26T06:43:24.600Z,25.05
2022-08-26T06:43:56.218Z,25.05
2022-08-26T06:44:27.799Z,25.06
2022-08-26T06:44:59.608Z,25.05
2022-08-26T06:45:31.042Z,25.06
2022-08-26T06:46:02.664Z,25.07
2022-08-26T06:46:36.692Z,25.07
2022-08-26T06:47:08.254Z,25.07
2022-08-26T06:47:39.841Z,25.08
2022-08-26T06:48:11.288Z,25.08
2022-08-26T06:48:42.805Z,25.09
2022-08-26T06:49:14.312Z,25.08
2022-08-26T06:49:48.856Z,25.08
2022-08-26T06:50:22.559Z,25.09
2022-08-26T06:50:53.993Z,25.10
2022-08-26T06:51:25.441Z,25.10
2022-08-26T06:51:57.461Z,25.11
2022-08-26T06:52:29.604Z,25.11
2022-08-26T06:53:01.171Z,25.12
2022-08-26T06:53:32.634Z,25.12
2022-08-26T06:54:04.065Z,25.12
2022-08-26T06:54:35.508Z,25.14
2022-08-26T06:55:10.262Z,25.14
2022-08-26T06:55:41.959Z,25.15